createdAt,value
2022-11-15T00:00:08.473Z,51.111275
2022-11-15T00:01:08.379Z,51.111229
2022-11-15T00:02:08.527Z,51.111252
2022-11-15T00:03:08.331Z,51.111259
2022-11-15T00:04:08.405Z,51.111210
2022-11-15T00:05:08.321Z,51.111256
2022-11-15T00:06:08.302Z,51.111240
2022-11-15T00:07:08.353Z,51.111282
2022-11-15T00:08:08.377Z,51.111248
2022-11-15T00:09:08.348Z,51.111221
2022-11-15T00:10:08.293Z,51.111214
2022-11-15T00:11:08.395Z,51.111214
2022-11-15T00:12:08.429Z,51.111271
2022-11-15T00:13:08.345Z,51.111248
2022-11-15T00:14:08.360Z,51.111271
2022-11-15T00:15:08.391Z,51.111267
2022-11-15T00:16:08.397Z,51.111240
2022-11-15T00:17:08.326Z,51.111343
2022-11-15T00:18:08.304Z,51.111263
2022-11-15T00:19:08.303Z,51.111286
2022-11-15T00:20:09.412Z,51.111294
2022-11-15T00:21:08.333Z,51.111298
2022-11-15T00:22:08.188Z,51.111279
2022-11-15T00:23:08.219Z,51.111286
2022-11-15T00:24:08.284Z,51.111286
2022-11-15T00:25:08.219Z,51.111313
2022-11-15T00:26:08.228Z,51.111328
2022-11-15T00:27:09.167Z,51.111355
2022-11-15T00:28:08.148Z,51.111393
2022-11-15T00:29:08.217Z,51.111320
2022-11-15T00:30:08.322Z,51.111320
2022-11-15T00:31:08.479Z,51.111294
2022-11-15T00:32:08.272Z,51.111263
2022-11-15T00:33:08.210Z,51.111301
2022-11-15T00:34:08.241Z,51.111324
2022-11-15T00:35:08.188Z,51.111263
2022-11-15T00:36:08.203Z,51.111183
2022-11-15T00:37:08.221Z,51.111221
2022-11-15T00:38:08.200Z,51.111328
2022-11-15T00:39:08.181Z,51.111324
2022-11-15T00:40:08.169Z,51.111298
2022-11-15T00:41:09.962Z,51.111317
2022-11-15T00:42:09.135Z,51.111362
2022-11-15T00:43:08.139Z,51.111446
2022-11-15T00:44:08.034Z,51.111328
2022-11-15T00:45:08.029Z,51.111263
2022-11-15T00:46:08.700Z,51.111298
2022-11-15T00:47:08.087Z,51.111279
2022-11-15T00:48:08.137Z,51.111347
2022-11-15T00:49:08.157Z,51.111317
2022-11-15T00:50:10.715Z,51.111279
2022-11-15T00:51:08.979Z,51.111282
2022-11-15T00:52:08.102Z,51.111267
2022-11-15T00:53:08.176Z,51.111271
2022-11-15T00:54:08.039Z,51.111286
2022-11-15T00:55:08.035Z,51.111286
2022-11-15T00:56:08.058Z,51.111320
2022-11-15T00:57:08.057Z,51.111320
2022-11-15T00:58:08.105Z,51.111263
2022-11-15T00:59:08.047Z,51.111248
2022-11-15T01:00:08.023Z,51.111259
2022-11-15T01:01:08.180Z,51.111290
2022-11-15T01:02:07.863Z,51.111259
2022-11-15T01:03:07.878Z,51.111320
2022-11-15T01:04:07.934Z,51.111320
2022-11-15T01:05:07.928Z,51.111286
2022-11-15T01:06:07.891Z,51.111317
2022-11-15T01:07:08.037Z,51.111275
2022-11-15T01:08:07.971Z,51.111317
2022-11-15T01:09:07.993Z,51.111282
2022-11-15T01:10:08.003Z,51.111275
2022-11-15T01:11:07.941Z,51.111286
2022-11-15T01:12:08.909Z,51.111317
2022-11-15T01:13:07.917Z,51.111301
2022-11-15T01:14:08.080Z,51.111294
2022-11-15T01:15:07.949Z,51.111267
2022-11-15T01:16:07.927Z,51.111259
2022-11-15T01:17:07.894Z,51.111259
2022-11-15T01:18:07.858Z,51.111252
2022-11-15T01:19:08.795Z,51.111198
2022-11-15T01:20:07.859Z,51.111259
2022-11-15T01:21:07.854Z,51.111271
2022-11-15T01:22:07.891Z,51.111275
2022-11-15T01:23:07.759Z,51.111252
2022-11-15T01:24:07.774Z,51.111275
2022-11-15T01:25:07.911Z,51.111301
2022-11-15T01:26:07.815Z,51.111267
2022-11-15T01:27:07.858Z,51.111244
2022-11-15T01:28:07.858Z,51.111168
2022-11-15T01:29:07.824Z,51.111248
2022-11-15T01:30:07.916Z,51.111279
2022-11-15T01:31:07.798Z,51.111290
2022-11-15T01:32:07.776Z,51.111286
2022-11-15T01:33:07.846Z,51.111271
2022-11-15T01:34:07.798Z,51.111290
2022-11-15T01:35:07.857Z,51.111271
2022-11-15T01:36:08.083Z,51.111271
2022-11-15T01:37:07.828Z,51.111290
2022-11-15T01:38:08.217Z,51.111279
2022-11-15T01:39:08.755Z,51.111248
2022-11-15T01:40:07.679Z,51.111271
2022-11-15T01:41:07.718Z,51.111267
2022-11-15T01:42:07.634Z,51.111259
2022-11-15T01:43:07.744Z,51.111252
2022-11-15T01:44:07.622Z,51.111256
2022-11-15T01:45:07.639Z,51.111256
2022-11-15T01:46:07.789Z,51.111252
2022-11-15T01:47:07.676Z,51.111256
2022-11-15T01:48:07.669Z,51.111263
2022-11-15T01:49:07.657Z,51.111271
2022-11-15T01:50:07.648Z,51.111259
2022-11-15T01:51:07.652Z,51.111275
2022-11-15T01:52:07.662Z,51.111279
2022-11-15T01:53:07.650Z,51.111267
2022-11-15T01:54:07.730Z,51.111256
2022-11-15T01:55:07.675Z,51.111286
2022-11-15T01:56:07.675Z,51.111279
2022-11-15T01:57:07.554Z,51.111263
2022-11-15T01:58:07.539Z,51.111282
2022-11-15T01:59:07.581Z,51.111267
2022-11-15T02:00:07.543Z,51.111279
2022-11-15T02:01:07.547Z,51.111263
2022-11-15T02:02:07.519Z,51.111275
2022-11-15T02:03:07.493Z,51.111294
2022-11-15T02:04:07.574Z,51.111301
2022-11-15T02:05:07.629Z,51.111290
2022-11-15T02:06:07.569Z,51.111267
2022-11-15T02:07:07.575Z,51.111259
2022-11-15T02:08:07.542Z,51.111252
2022-11-15T02:09:07.537Z,51.111240
2022-11-15T02:10:07.523Z,51.111305
2022-11-15T02:11:07.529Z,51.111328
2022-11-15T02:12:07.562Z,51.111347
2022-11-15T02:13:07.500Z,51.111317
2022-11-15T02:14:07.541Z,51.111301
2022-11-15T02:15:07.514Z,51.111279
2022-11-15T02:16:07.453Z,51.111347
2022-11-15T02:17:07.406Z,51.111309
2022-11-15T02:18:07.391Z,51.111351
2022-11-15T02:19:07.520Z,51.111347
2022-11-15T02:20:08.412Z,51.111393
2022-11-15T02:21:07.385Z,51.111294
2022-11-15T02:22:07.435Z,51.111320
2022-11-15T02:23:07.502Z,51.111351
2022-11-15T02:24:07.443Z,51.111359
2022-11-15T02:25:07.593Z,51.111351
2022-11-15T02:26:07.388Z,51.111305
2022-11-15T02:27:07.392Z,51.111244
2022-11-15T02:28:07.441Z,51.111279
2022-11-15T02:29:07.385Z,51.111282
2022-11-15T02:30:07.454Z,51.111294
2022-11-15T02:31:07.383Z,51.111317
2022-11-15T02:32:07.399Z,51.111301
2022-11-15T02:33:07.371Z,51.111305
2022-11-15T02:34:07.370Z,51.111256
2022-11-15T02:35:07.357Z,51.111229
2022-11-15T02:36:39.489Z,51.111305
2022-11-15T02:37:40.293Z,51.111256
2022-11-15T02:38:40.273Z,51.111229
2022-11-15T02:39:40.239Z,51.111290
2022-11-15T02:40:40.226Z,51.111225
2022-11-15T02:41:40.364Z,51.111202
2022-11-15T02:42:40.435Z,51.111233
2022-11-15T02:43:40.334Z,51.111229
2022-11-15T02:44:39.285Z,51.111317
2022-11-15T02:45:40.308Z,51.111340
2022-11-15T02:46:40.680Z,51.111301
2022-11-15T02:47:40.290Z,51.111233
2022-11-15T02:48:07.166Z,51.111225
2022-11-15T02:49:07.225Z,51.111225
2022-11-15T02:50:07.268Z,51.111214
2022-11-15T02:51:07.252Z,51.111206
2022-11-15T02:52:07.255Z,51.111111
2022-11-15T02:53:07.217Z,51.111115
2022-11-15T02:54:08.222Z,51.111149
2022-11-15T02:55:07.152Z,51.111183
2022-11-15T02:56:07.101Z,51.111240
2022-11-15T02:57:07.151Z,51.111252
2022-11-15T02:58:07.116Z,51.111256
2022-11-15T02:59:07.193Z,51.111252
2022-11-15T03:00:07.180Z,51.111244
2022-11-15T03:01:07.186Z,51.111320
2022-11-15T03:02:08.140Z,51.111282
2022-11-15T03:03:07.236Z,51.111340
2022-11-15T03:04:07.157Z,51.111259
2022-11-15T03:05:07.259Z,51.111298
2022-11-15T03:06:07.140Z,51.111305
2022-11-15T03:07:07.245Z,51.111240
2022-11-15T03:08:07.326Z,51.111263
2022-11-15T03:09:07.208Z,51.111267
2022-11-15T03:10:39.123Z,51.111305
2022-11-15T03:11:07.010Z,51.111252
2022-11-15T03:12:07.108Z,51.111279
2022-11-15T03:13:07.144Z,51.111256
2022-11-15T03:14:07.084Z,51.111244
2022-11-15T03:15:07.095Z,51.111252
2022-11-15T03:16:07.060Z,51.111279
2022-11-15T03:17:41.586Z,51.111271
2022-11-15T03:18:08.005Z,51.111263
2022-11-15T03:19:07.032Z,51.111279
2022-11-15T03:20:06.917Z,51.111252
2022-11-15T03:21:06.924Z,51.111256
2022-11-15T03:22:06.893Z,51.111271
2022-11-15T03:23:06.940Z,51.111259
2022-11-15T03:24:06.958Z,51.111298
2022-11-15T03:25:06.915Z,51.111340
2022-11-15T03:26:06.917Z,51.111275
2022-11-15T03:27:06.885Z,51.111240
2022-11-15T03:28:06.876Z,51.111256
2022-11-15T03:29:07.006Z,51.111290
2022-11-15T03:30:06.991Z,51.111221
2022-11-15T03:31:06.972Z,51.111256
2022-11-15T03:32:07.019Z,51.111259
2022-11-15T03:33:06.957Z,51.111240
2022-11-15T03:34:06.970Z,51.111267
2022-11-15T03:35:06.973Z,51.111267
2022-11-15T03:36:06.940Z,51.111256
2022-11-15T03:37:06.910Z,51.111256
2022-11-15T03:38:06.921Z,51.111248
2022-11-15T03:39:06.903Z,51.111267
2022-11-15T03:40:06.948Z,51.111248
2022-11-15T03:41:06.913Z,51.111271
2022-11-15T03:42:06.894Z,51.111244
2022-11-15T03:43:06.828Z,51.111244
2022-11-15T03:44:06.858Z,51.111259
2022-11-15T03:45:06.800Z,51.111271
2022-11-15T03:46:06.844Z,51.111267
2022-11-15T03:47:06.769Z,51.111267
2022-11-15T03:48:06.818Z,51.111263
2022-11-15T03:49:06.823Z,51.111259
2022-11-15T03:50:06.836Z,51.111263
2022-11-15T03:51:06.917Z,51.111256
2022-11-15T03:52:06.801Z,51.111279
2022-11-15T03:53:06.904Z,51.111263
2022-11-15T03:54:06.834Z,51.111271
2022-11-15T03:55:06.882Z,51.111263
2022-11-15T03:56:06.743Z,51.111259
2022-11-15T03:57:06.844Z,51.111279
2022-11-15T03:58:06.783Z,51.111279
2022-11-15T03:59:06.745Z,51.111263
2022-11-15T04:00:06.775Z,51.111271
2022-11-15T04:01:06.793Z,51.111244
2022-11-15T04:02:06.684Z,51.111240
2022-11-15T04:03:06.736Z,51.111252
2022-11-15T04:04:06.628Z,51.111237
2022-11-15T04:05:06.623Z,51.111240
2022-11-15T04:06:06.725Z,51.111225
2022-11-15T04:07:06.816Z,51.111240
2022-11-15T04:08:06.714Z,51.111244
2022-11-15T04:09:06.671Z,51.111244
2022-11-15T04:10:06.754Z,51.111237
2022-11-15T04:11:06.688Z,51.111256
2022-11-15T04:12:06.661Z,51.111248
2022-11-15T04:13:06.690Z,51.111244
2022-11-15T04:14:06.701Z,51.111240
2022-11-15T04:15:06.687Z,51.111233
2022-11-15T04:16:06.727Z,51.111263
2022-11-15T04:17:06.590Z,51.111267
2022-11-15T04:18:06.666Z,51.111252
2022-11-15T04:19:06.650Z,51.111267
2022-11-15T04:20:06.498Z,51.111275
2022-11-15T04:21:06.496Z,51.111275
2022-11-15T04:22:07.428Z,51.111237
2022-11-15T04:23:06.534Z,51.111271
2022-11-15T04:24:06.566Z,51.111290
2022-11-15T04:25:06.494Z,51.111263
2022-11-15T04:26:06.471Z,51.111240
2022-11-15T04:27:06.499Z,51.111244
2022-11-15T04:28:06.577Z,51.111233
2022-11-15T04:29:06.574Z,51.111206
2022-11-15T04:30:06.529Z,51.111214
2022-11-15T04:31:06.537Z,51.111229
2022-11-15T04:32:06.497Z,51.111237
2022-11-15T04:33:06.497Z,51.111240
2022-11-15T04:34:06.539Z,51.111217
2022-11-15T04:35:06.571Z,51.111214
2022-11-15T04:36:06.463Z,51.111263
2022-11-15T04:37:06.525Z,51.111252
2022-11-15T04:38:06.455Z,51.111198
2022-11-15T04:39:06.522Z,51.111244
2022-11-15T04:40:06.921Z,51.111263
2022-11-15T04:41:06.447Z,51.111286
2022-11-15T04:42:06.361Z,51.111286
2022-11-15T04:43:06.384Z,51.111172
2022-11-15T04:44:06.366Z,51.111237
2022-11-15T04:45:06.538Z,51.111252
2022-11-15T04:46:06.371Z,51.111256
2022-11-15T04:47:06.335Z,51.111240
2022-11-15T04:48:06.327Z,51.111225
2022-11-15T04:49:06.324Z,51.111233
2022-11-15T04:50:06.385Z,51.111275
2022-11-15T04:51:06.406Z,51.111282
2022-11-15T04:52:06.343Z,51.111217
2022-11-15T04:53:06.349Z,51.111210
2022-11-15T04:54:06.339Z,51.111301
2022-11-15T04:55:08.317Z,51.111309
2022-11-15T04:56:07.375Z,51.111305
2022-11-15T04:57:06.397Z,51.111206
2022-11-15T04:58:06.407Z,51.111301
2022-11-15T04:59:06.336Z,51.111267
2022-11-15T05:00:06.378Z,51.111271
2022-11-15T05:01:06.276Z,51.111252
2022-11-15T05:02:06.263Z,51.111275
2022-11-15T05:03:06.234Z,51.111263
2022-11-15T05:04:06.293Z,51.111198
2022-11-15T05:05:06.231Z,51.111195
2022-11-15T05:06:06.192Z,51.111214
2022-11-15T05:07:06.246Z,51.111298
2022-11-15T05:08:06.140Z,51.111309
2022-11-15T05:09:06.269Z,51.111237
2022-11-15T05:10:06.254Z,51.111267
2022-11-15T05:11:06.249Z,51.111294
2022-11-15T05:12:06.266Z,51.111355
2022-11-15T05:13:06.244Z,51.111324
2022-11-15T05:14:06.206Z,51.111141
2022-11-15T05:15:06.247Z,51.111198
2022-11-15T05:16:06.193Z,51.111202
2022-11-15T05:17:06.222Z,51.111263
2022-11-15T05:18:06.228Z,51.111279
2022-11-15T05:19:06.239Z,51.111313
2022-11-15T05:20:06.143Z,51.111324
2022-11-15T05:21:06.262Z,51.111328
2022-11-15T05:22:06.073Z,51.111286
2022-11-15T05:23:06.138Z,51.111282
2022-11-15T05:24:06.064Z,51.111267
2022-11-15T05:25:06.054Z,51.111252
2022-11-15T05:26:09.142Z,51.111324
2022-11-15T05:27:07.196Z,51.111290
2022-11-15T05:28:06.093Z,51.111256
2022-11-15T05:29:06.112Z,51.111240
2022-11-15T05:30:06.090Z,51.111267
2022-11-15T05:31:06.058Z,51.111279
2022-11-15T05:32:06.079Z,51.111279
2022-11-15T05:33:06.112Z,51.111259
2022-11-15T05:34:06.166Z,51.111267
2022-11-15T05:35:06.026Z,51.111259
2022-11-15T05:36:06.078Z,51.111263
2022-11-15T05:37:05.955Z,51.111279
2022-11-15T05:38:05.985Z,51.111294
2022-11-15T05:39:06.049Z,51.111259
2022-11-15T05:40:05.993Z,51.111256
2022-11-15T05:41:05.922Z,51.111256
2022-11-15T05:42:05.910Z,51.111259
2022-11-15T05:43:05.947Z,51.111279
2022-11-15T05:44:06.054Z,51.111294
2022-11-15T05:45:06.120Z,51.111282
2022-11-15T05:46:05.985Z,51.111237
2022-11-15T05:47:05.984Z,51.111248
2022-11-15T05:48:05.970Z,51.111240
2022-11-15T05:49:05.978Z,51.111279
2022-11-15T05:50:05.974Z,51.111237
2022-11-15T05:51:06.054Z,51.111214
2022-11-15T05:52:05.904Z,51.111172
2022-11-15T05:53:05.937Z,51.111240
2022-11-15T05:54:05.929Z,51.111244
2022-11-15T05:55:05.900Z,51.111221
2022-11-15T05:56:05.938Z,51.111244
2022-11-15T05:57:05.897Z,51.111206
2022-11-15T05:58:05.882Z,51.111210
2022-11-15T05:59:05.898Z,51.111187
2022-11-15T06:00:05.851Z,51.111221
2022-11-15T06:01:05.760Z,51.111221
2022-11-15T06:02:05.953Z,51.111217
2022-11-15T06:03:05.853Z,51.111187
2022-11-15T06:04:05.887Z,51.111313
2022-11-15T06:05:05.768Z,51.111324
2022-11-15T06:06:05.830Z,51.111328
2022-11-15T06:07:05.965Z,51.111332
2022-11-15T06:08:05.828Z,51.111320
2022-11-15T06:09:05.796Z,51.111320
2022-11-15T06:10:05.817Z,51.111340
2022-11-15T06:11:05.792Z,51.111313
2022-11-15T06:12:05.810Z,51.111320
2022-11-15T06:13:05.820Z,51.111324
2022-11-15T06:14:05.748Z,51.111324
2022-11-15T06:15:05.752Z,51.111317
2022-11-15T06:16:05.766Z,51.111313
2022-11-15T06:17:11.018Z,51.111313
2022-11-15T06:18:07.778Z,51.111332
2022-11-15T06:19:05.675Z,51.111305
2022-11-15T06:20:05.642Z,51.111298
2022-11-15T06:21:05.644Z,51.111320
2022-11-15T06:22:05.634Z,51.111332
2022-11-15T06:23:05.834Z,51.111343
2022-11-15T06:27:03.991Z,51.111343
2022-11-15T06:28:03.971Z,51.111328
2022-11-15T06:29:03.938Z,51.111328
2022-11-15T06:30:04.037Z,51.111328
2022-11-15T06:31:03.981Z,51.111343
2022-11-15T06:32:03.936Z,51.111340
2022-11-15T06:33:04.000Z,51.111332
2022-11-15T06:34:03.981Z,51.111320
2022-11-15T06:35:03.901Z,51.111340
2022-11-15T06:36:03.866Z,51.111347
2022-11-15T06:37:03.881Z,51.111347
2022-11-15T06:38:03.941Z,51.111305
2022-11-15T06:39:03.880Z,51.111340
2022-11-15T06:40:03.871Z,51.111336
2022-11-15T06:41:03.783Z,51.111340
2022-11-15T06:42:03.793Z,51.111320
2022-11-15T06:43:03.815Z,51.111313
2022-11-15T06:44:03.709Z,51.111298
2022-11-15T06:45:03.845Z,51.111286
2022-11-15T06:46:03.766Z,51.111294
2022-11-15T06:47:03.751Z,51.111320
2022-11-15T06:48:03.726Z,51.111313
2022-11-15T06:49:08.352Z,51.111351
2022-11-15T06:50:05.935Z,51.111355
2022-11-15T06:51:03.797Z,51.111324
2022-11-15T06:52:03.829Z,51.111320
2022-11-15T06:53:03.779Z,51.111305
2022-11-15T06:54:03.854Z,51.111340
2022-11-15T06:55:03.842Z,51.111351
2022-11-15T06:56:03.748Z,51.111351
2022-11-15T06:57:03.740Z,51.111351
2022-11-15T06:58:03.752Z,51.111347
2022-11-15T06:59:03.711Z,51.111359
2022-11-15T07:00:03.758Z,51.111359
2022-11-15T07:01:03.816Z,51.111378
2022-11-15T07:02:03.614Z,51.111374
2022-11-15T07:03:03.772Z,51.111393
2022-11-15T07:04:03.618Z,51.111362
2022-11-15T07:05:03.650Z,51.111328
2022-11-15T07:06:07.407Z,51.111347
2022-11-15T07:07:04.773Z,51.111336
2022-11-15T07:08:03.589Z,51.111347
2022-11-15T07:09:03.653Z,51.111332
2022-11-15T07:10:03.670Z,51.111317
2022-11-15T07:11:03.668Z,51.111317
2022-11-15T07:12:07.646Z,51.111328
2022-11-15T07:13:04.687Z,51.111324
2022-11-15T07:14:03.624Z,51.111313
2022-11-15T07:15:03.661Z,51.111313
2022-11-15T07:16:03.595Z,51.111343
2022-11-15T07:17:03.693Z,51.111351
2022-11-15T07:18:03.646Z,51.111332
2022-11-15T07:19:03.682Z,51.111336
2022-11-15T07:20:03.556Z,51.111320
2022-11-15T07:21:03.568Z,51.111320
2022-11-15T07:22:03.458Z,51.111324
2022-11-15T07:23:03.479Z,51.111320
2022-11-15T07:24:03.446Z,51.111313
2022-11-15T07:25:03.574Z,51.111305
2022-11-15T07:26:03.484Z,51.111317
2022-11-15T07:27:03.586Z,51.111286
2022-11-15T07:28:03.616Z,51.111263
2022-11-15T07:29:03.512Z,51.111320
2022-11-15T07:30:03.623Z,51.111324
2022-11-15T07:31:03.492Z,51.111317
2022-11-15T07:32:03.507Z,51.111309
2022-11-15T07:33:03.464Z,51.111290
2022-11-15T07:34:03.560Z,51.111305
2022-11-15T07:35:03.454Z,51.111301
2022-11-15T07:36:03.477Z,51.111290
2022-11-15T07:37:03.480Z,51.111298
2022-11-15T07:38:03.490Z,51.111279
2022-11-15T07:39:03.447Z,51.111267
2022-11-15T07:40:03.338Z,51.111286
2022-11-15T07:41:03.386Z,51.111294
2022-11-15T07:42:03.293Z,51.111279
2022-11-15T07:43:03.335Z,51.111290
2022-11-15T07:44:03.317Z,51.111298
2022-11-15T07:45:03.354Z,51.111294
2022-11-15T07:46:03.297Z,51.111275
2022-11-15T07:47:03.270Z,51.111271
2022-11-15T07:48:03.299Z,51.111259
2022-11-15T07:49:03.308Z,51.111279
2022-11-15T07:50:03.465Z,51.111282
2022-11-15T07:51:03.353Z,51.111279
2022-11-15T07:52:03.336Z,51.111252
2022-11-15T07:53:03.322Z,51.111263
2022-11-15T07:54:03.333Z,51.111263
2022-11-15T07:55:03.348Z,51.111271
2022-11-15T07:56:03.460Z,51.111279
2022-11-15T07:57:07.252Z,51.111259
2022-11-15T07:58:04.320Z,51.111267
2022-11-15T07:59:03.364Z,51.111275
2022-11-15T08:00:03.331Z,51.111282
2022-11-15T08:01:03.370Z,51.111279
2022-11-15T08:02:03.397Z,51.111294
2022-11-15T08:03:03.219Z,51.111294
2022-11-15T08:04:03.254Z,51.111271
2022-11-15T08:05:03.204Z,51.111248
2022-11-15T08:06:03.159Z,51.111248
2022-11-15T08:07:03.282Z,51.111279
2022-11-15T08:08:03.159Z,51.111267
2022-11-15T08:09:03.291Z,51.111256
2022-11-15T08:10:03.239Z,51.111279
2022-11-15T08:11:03.236Z,51.111279
2022-11-15T08:12:03.288Z,51.111298
2022-11-15T08:13:03.335Z,51.111271
2022-11-15T08:14:03.601Z,51.111259
2022-11-15T08:15:03.194Z,51.111267
2022-11-15T08:16:03.340Z,51.111279
2022-11-15T08:17:03.220Z,51.111244
2022-11-15T08:18:03.293Z,51.111256
2022-11-15T08:32:50.194Z,51.111237
2022-11-15T08:33:18.147Z,51.111240
2022-11-15T08:34:18.100Z,51.111214
2022-11-15T08:35:18.166Z,51.111275
2022-11-15T08:36:18.315Z,51.111256
2022-11-15T08:37:18.150Z,51.111225
2022-11-15T08:38:18.139Z,51.111210
2022-11-15T08:39:18.207Z,51.111210
2022-11-15T08:40:18.305Z,51.111225
2022-11-15T08:41:18.193Z,51.111233
2022-11-15T08:42:19.980Z,51.111263
2022-11-15T08:43:19.171Z,51.111256
2022-11-15T08:44:18.221Z,51.111244
2022-11-15T08:45:18.149Z,51.111225
2022-11-15T08:46:18.197Z,51.111229
2022-11-15T08:47:18.165Z,51.111233
2022-11-15T08:48:18.092Z,51.111237
2022-11-15T08:49:18.093Z,51.111256
2022-11-15T08:50:18.126Z,51.111206
2022-11-15T08:51:18.140Z,51.111225
2022-11-15T08:52:18.161Z,51.111214
2022-11-15T08:53:18.155Z,51.111267
2022-11-15T08:54:18.081Z,51.111248
2022-11-15T08:55:18.056Z,51.111290
2022-11-15T08:56:17.995Z,51.111225
2022-11-15T08:57:17.958Z,51.111248
2022-11-15T08:58:18.014Z,51.111279
2022-11-15T08:59:18.096Z,51.111275
2022-11-15T09:00:17.937Z,51.111340
2022-11-15T09:01:18.681Z,51.111420
2022-11-15T09:02:18.934Z,51.111305
2022-11-15T09:03:17.927Z,51.111324
2022-11-15T09:04:18.007Z,51.111362
2022-11-15T09:05:17.997Z,51.111332
2022-11-15T09:06:17.987Z,51.111275
2022-11-15T09:07:18.027Z,51.111290
2022-11-15T09:08:47.041Z,51.111301
2022-11-15T09:09:19.941Z,51.111359
2022-11-15T09:10:17.995Z,51.111362
2022-11-15T09:11:17.949Z,51.111309
2022-11-15T09:12:17.954Z,51.111252
2022-11-15T09:13:17.958Z,51.111229
2022-11-15T09:14:18.025Z,51.111259
2022-11-15T09:15:17.896Z,51.111237
2022-11-15T09:16:17.929Z,51.111244
2022-11-15T09:17:23.194Z,51.111237
2022-11-15T09:18:22.240Z,51.111233
2022-11-15T09:19:17.948Z,51.111244
2022-11-15T09:20:17.989Z,51.111244
2022-11-15T09:21:17.780Z,51.111210
2022-11-15T09:22:17.756Z,51.111240
2022-11-15T09:23:17.850Z,51.111217
2022-11-15T09:24:17.933Z,51.111240
2022-11-15T09:25:17.912Z,51.111237
2022-11-15T09:26:17.998Z,51.111244
2022-11-15T09:27:17.841Z,51.111259
2022-11-15T09:28:17.852Z,51.111256
2022-11-15T09:29:17.848Z,51.111225
2022-11-15T09:30:17.835Z,51.111229
2022-11-15T09:31:21.025Z,51.111225
2022-11-15T09:32:18.873Z,51.111229
2022-11-15T09:33:17.773Z,51.111267
2022-11-15T09:34:17.830Z,51.111259
2022-11-15T09:35:17.795Z,51.111244
2022-11-15T09:36:17.835Z,51.111221
2022-11-15T09:37:17.763Z,51.111233
2022-11-15T09:38:17.814Z,51.111244
2022-11-15T09:39:17.689Z,51.111240
2022-11-15T09:40:17.669Z,51.111240
2022-11-15T09:41:17.679Z,51.111210
2022-11-15T09:42:17.809Z,51.111210
2022-11-15T09:43:17.652Z,51.111240
2022-11-15T09:44:21.170Z,51.111256
2022-11-15T09:45:19.662Z,51.111267
2022-11-15T09:46:17.735Z,51.111271
2022-11-15T09:47:17.818Z,51.111317
2022-11-15T09:48:17.682Z,51.111279
2022-11-15T09:49:17.765Z,51.111229
2022-11-15T09:50:17.661Z,51.111225
2022-11-15T09:51:17.839Z,51.111233
2022-11-15T09:52:17.699Z,51.111256
2022-11-15T09:53:17.727Z,51.111240
2022-11-15T09:55:19.622Z,51.111275
2022-11-15T09:56:17.704Z,51.111282
2022-11-15T09:57:17.625Z,51.111286
2022-11-15T09:58:17.696Z,51.111279
2022-11-15T09:59:17.700Z,51.111298
2022-11-15T10:00:44.777Z,51.111286
2022-11-15T10:01:19.543Z,51.111294
2022-11-15T10:02:17.526Z,51.111286
2022-11-15T10:03:17.527Z,51.111275
2022-11-15T10:04:17.576Z,51.111263
2022-11-15T10:05:17.505Z,51.111275
2022-11-15T10:06:17.488Z,51.111248
2022-11-15T10:07:17.583Z,51.111267
2022-11-15T10:08:17.555Z,51.111286
2022-11-15T10:09:22.565Z,51.111263
2022-11-15T10:10:19.567Z,51.111286
2022-11-15T10:12:19.452Z,51.111279
2022-11-15T10:13:17.578Z,51.111275
2022-11-15T10:14:17.724Z,51.111282
2022-11-15T10:15:17.507Z,51.111267
2022-11-15T10:16:17.487Z,51.111279
2022-11-15T10:17:17.497Z,51.111256
2022-11-15T10:18:17.500Z,51.111259
2022-11-15T10:19:17.483Z,51.111267
2022-11-15T10:20:17.497Z,51.111286
2022-11-15T10:21:17.480Z,51.111309
2022-11-15T10:22:17.499Z,51.111256
2022-11-15T10:23:18.467Z,51.111259
2022-11-15T10:24:17.471Z,51.111240
2022-11-15T10:25:17.494Z,51.111267
2022-11-15T10:26:17.429Z,51.111275
2022-11-15T10:27:17.460Z,51.111279
2022-11-15T10:28:17.499Z,51.111267
2022-11-15T10:29:17.328Z,51.111244
2022-11-15T10:30:17.346Z,51.111233
2022-11-15T10:31:17.478Z,51.111244
2022-11-15T10:32:17.377Z,51.111233
2022-11-15T10:33:17.324Z,51.111244
2022-11-15T10:34:17.370Z,51.111225
2022-11-15T10:35:17.526Z,51.111233
2022-11-15T10:36:17.421Z,51.111248
2022-11-15T10:37:17.466Z,51.111237
2022-11-15T10:38:17.492Z,51.111233
2022-11-15T10:39:17.675Z,51.111240
2022-11-15T10:40:17.373Z,51.111271
2022-11-15T10:41:17.378Z,51.111244
2022-11-15T10:42:18.051Z,51.111240
2022-11-15T10:43:18.483Z,51.111259
2022-11-15T10:44:17.340Z,51.111252
2022-11-15T10:45:17.344Z,51.111244
2022-11-15T10:46:44.477Z,51.111259
2022-11-15T10:47:19.295Z,51.111263
2022-11-15T10:48:17.319Z,51.111252
2022-11-15T10:49:17.332Z,51.111237
2022-11-15T10:50:17.304Z,51.111263
2022-11-15T10:51:17.227Z,51.111244
2022-11-15T10:52:17.216Z,51.111256
2022-11-15T10:53:17.178Z,51.111279
2022-11-15T10:54:21.003Z,51.111252
2022-11-15T10:55:18.148Z,51.111263
2022-11-15T10:56:17.147Z,51.111252
2022-11-15T10:57:17.282Z,51.111244
2022-11-15T10:58:17.286Z,51.111286
2022-11-15T10:59:17.259Z,51.111282
2022-11-15T11:00:17.320Z,51.111305
2022-11-15T11:01:17.309Z,51.111286
2022-11-15T11:02:17.111Z,51.111271
2022-11-15T11:03:17.428Z,51.111252
2022-11-15T11:04:17.237Z,51.111256
2022-11-15T11:05:17.180Z,51.111271
2022-11-15T11:06:17.320Z,51.111275
2022-11-15T11:07:17.213Z,51.111294
2022-11-15T11:08:17.172Z,51.111286
2022-11-15T11:09:17.167Z,51.111271
2022-11-15T11:10:44.237Z,51.111290
2022-11-15T11:11:19.048Z,51.111286
2022-11-15T11:12:17.099Z,51.111271
2022-11-15T11:13:17.148Z,51.111286
2022-11-15T11:14:17.147Z,51.111290
2022-11-15T11:15:17.090Z,51.111286
2022-11-15T11:16:17.208Z,51.111282
2022-11-15T11:17:17.084Z,51.111294
2022-11-15T11:18:16.984Z,51.111286
2022-11-15T11:19:17.050Z,51.111282
2022-11-15T11:20:17.052Z,51.111298
2022-11-15T11:21:16.986Z,51.111294
2022-11-15T11:22:17.182Z,51.111290
2022-11-15T11:23:17.018Z,51.111298
2022-11-15T11:24:17.073Z,51.111305
2022-11-15T11:25:17.100Z,51.111290
2022-11-15T11:26:16.999Z,51.111271
2022-11-15T11:27:17.041Z,51.111259
2022-11-15T11:28:17.030Z,51.111279
2022-11-15T11:29:16.995Z,51.111294
2022-11-15T11:30:18.098Z,51.111290
2022-11-15T11:31:17.020Z,51.111290
2022-11-15T11:32:17.073Z,51.111282
2022-11-15T11:33:17.023Z,51.111282
2022-11-15T11:34:17.044Z,51.111286
2022-11-15T11:35:17.139Z,51.111263
2022-11-15T11:38:25.832Z,51.111271
2022-11-15T11:39:25.861Z,51.111271
2022-11-15T11:40:25.872Z,51.111275
2022-11-15T11:41:25.698Z,51.111271
2022-11-15T11:42:25.640Z,51.111263
2022-11-15T11:43:25.616Z,51.111267
2022-11-15T11:44:25.620Z,51.111267